Akita, Japan
Current Conditions -  °F | °C
As of 4:00 PM on Sunday 23 Nov 2014 (Local Time) from RJSK Reporting Station
Few Clouds Few Clouds  
Wind Chill: 37°   Ceiling: Unl
Heat Index: 43°   Visibility: 6mi
Dew Point: 30°   Wind: 10mph
Humidity: 61%   Direction: 320°NW
Pressure: 30.24"   Gusts: NA
Location:  39.71°N, 140.11°E
Report Text: RJSK 230700Z 32009KT 9999 FEW035 06/M01 Q1024
Loading
Personal Weather Stations






























Interactive Weather Map New forecast layout! Learn more

10-Day Weather Forecast

Advertisements
Track Severe Weather on mobile